Time;durP1;ratioP1;P1;durP2;ratioP2;P2;SDS_P1;SDS_P2;PMS_P1;PMS_P2;Temp;Humidity;BMP_temperature;BMP_pressure;BME280_temperature;BME280_humidity;BME280_pressure;Samples;Min_cycle;Max_cycle;Signal;HPM_P1;HPM_P2
2021/07/17 00:00:28;;;;;;;33.60;10.52;;;18.70;89.70;;;;;;5074408;28;20179;-92
2021/07/17 00:02:54;;;;;;;29.38;9.00;;;18.70;89.40;;;;;;5057122;28;20263;-91
2021/07/17 00:05:20;;;;;;;30.65;7.93;;;18.70;89.80;;;;;;5057124;28;20199;-92
2021/07/17 00:07:47;;;;;;;29.80;7.93;;;18.70;89.60;;;;;;5073412;28;20192;-91
2021/07/17 00:10:23;;;;;;;30.63;9.48;;;18.70;89.40;;;;;;5073424;28;20550;-90
2021/07/17 00:12:49;;;;;;;31.02;8.75;;;18.60;89.80;;;;;;5073548;28;20175;-90
2021/07/17 00:15:18;;;;;;;21.90;7.70;;;18.60;89.70;;;;;;5073537;28;20183;-91
2021/07/17 00:17:45;;;;;;;28.23;7.97;;;18.60;89.80;;;;;;5056401;28;20218;-91
2021/07/17 00:20:12;;;;;;;28.63;8.82;;;18.70;89.70;;;;;;5074414;28;20171;-91
2021/07/17 00:22:38;;;;;;;27.27;8.23;;;18.70;89.70;;;;;;5073327;28;20228;-91
2021/07/17 00:25:12;;;;;;;24.58;7.93;;;18.60;89.90;;;;;;5056491;28;20302;-91
2021/07/17 00:27:38;;;;;;;27.25;8.00;;;18.70;89.60;;;;;;5074234;28;20194;-91
2021/07/17 00:30:05;;;;;;;19.70;7.80;;;18.70;89.80;;;;;;5056597;28;20356;-91
2021/07/17 00:32:31;;;;;;;33.63;9.35;;;18.70;89.80;;;;;;5073137;28;20172;-92
2021/07/17 00:34:56;;;;;;;27.08;8.63;;;18.60;89.80;;;;;;5056336;28;20187;-92
2021/07/17 00:37:22;;;;;;;33.85;9.10;;;18.60;89.90;;;;;;5056269;28;20199;-92
2021/07/17 00:39:48;;;;;;;24.98;8.93;;;18.60;90.30;;;;;;5056326;28;20205;-91
2021/07/17 00:42:13;;;;;;;25.27;8.15;;;18.60;90.20;;;;;;5056347;28;20176;-91
2021/07/17 00:44:39;;;;;;;32.25;8.85;;;18.70;90.20;;;;;;5056131;28;20203;-92
2021/07/17 00:47:07;;;;;;;31.77;9.07;;;18.70;90.10;;;;;;5056315;28;20236;-91
2021/07/17 00:49:32;;;;;;;26.08;9.27;;;18.70;90.20;;;;;;5072706;28;20253;-91
2021/07/17 00:51:58;;;;;;;24.30;9.23;;;18.70;90.00;;;;;;5056103;28;20229;-91
2021/07/17 00:54:31;;;;;;;26.23;9.32;;;18.70;90.20;;;;;;5072795;28;20752;-91
2021/07/17 00:56:59;;;;;;;31.23;10.02;;;18.70;90.20;;;;;;5056087;28;20178;-91
2021/07/17 00:59:28;;;;;;;28.90;8.40;;;18.70;90.20;;;;;;5072591;28;20245;-91
2021/07/17 01:01:57;;;;;;;25.40;8.25;;;18.70;90.10;;;;;;5072618;28;20214;-92
2021/07/17 01:04:24;;;;;;;29.85;8.77;;;18.70;89.90;;;;;;5072607;28;20199;-92
2021/07/17 01:06:51;;;;;;;21.88;7.93;;;18.70;89.80;;;;;;5072668;28;20171;-91
2021/07/17 01:09:16;;;;;;;29.73;8.32;;;18.70;89.90;;;;;;5072499;28;20631;-91
2021/07/17 01:11:42;;;;;;;19.48;8.02;;;18.80;89.90;;;;;;5056130;28;20175;-91
2021/07/17 01:14:08;;;;;;;23.20;9.20;;;18.80;89.90;;;;;;5073135;28;20228;-91
2021/07/17 01:16:34;;;;;;;29.02;8.55;;;18.70;89.70;;;;;;5055736;28;20183;-91
2021/07/17 01:19:02;;;;;;;23.27;8.90;;;18.70;90.00;;;;;;5072564;28;20214;-91
2021/07/17 01:21:28;;;;;;;21.48;8.63;;;18.70;90.10;;;;;;5055671;28;20175;-92
2021/07/17 01:23:54;;;;;;;22.75;9.30;;;18.70;89.90;;;;;;5072936;28;20260;-91
2021/07/17 01:26:19;;;;;;;21.17;7.40;;;18.70;89.80;;;;;;5072167;28;20168;-91
2021/07/17 01:28:45;;;;;;;23.50;8.18;;;18.70;89.60;;;;;;5055649;28;20221;-91
2021/07/17 01:31:13;;;;;;;16.83;8.15;;;18.70;89.60;;;;;;5055469;28;20639;-91
2021/07/17 01:33:39;;;;;;;23.52;7.65;;;18.70;89.40;;;;;;5072425;28;20521;-91
2021/07/17 01:36:05;;;;;;;22.73;8.40;;;18.70;89.50;;;;;;5055585;28;20183;-91
2021/07/17 01:38:31;;;;;;;16.73;7.72;;;18.60;89.40;;;;;;5072346;28;20221;-91
2021/07/17 01:40:56;;;;;;;18.77;7.93;;;18.50;89.50;;;;;;5055940;28;20186;-91
2021/07/17 01:43:22;;;;;;;25.30;8.20;;;18.50;89.50;;;;;;5055415;28;20175;-91
2021/07/17 01:45:48;;;;;;;22.25;7.82;;;18.50;89.30;;;;;;5055608;28;20179;-92
2021/07/17 01:48:14;;;;;;;20.48;7.78;;;18.50;89.20;;;;;;5055249;28;20218;-91
2021/07/17 01:50:42;;;;;;;15.57;7.88;;;18.50;89.20;;;;;;5056308;28;20181;-93
2021/07/17 01:53:09;;;;;;;27.35;8.25;;;18.50;89.00;;;;;;5072251;28;20178;-91
2021/07/17 01:55:35;;;;;;;18.40;9.00;;;18.50;88.80;;;;;;5072097;28;20267;-92
2021/07/17 01:58:01;;;;;;;20.15;8.20;;;18.50;88.80;;;;;;5072007;28;20187;-92
2021/07/17 02:00:27;;;;;;;16.50;8.07;;;18.40;89.00;;;;;;5071995;28;20199;-91
2021/07/17 02:02:54;;;;;;;20.75;8.23;;;18.40;89.10;;;;;;5071955;28;20587;-91
2021/07/17 02:05:21;;;;;;;16.80;7.47;;;18.40;89.20;;;;;;5072109;28;20666;-92
2021/07/17 02:07:47;;;;;;;18.58;8.23;;;18.40;89.10;;;;;;5072168;28;20190;-91
2021/07/17 02:10:16;;;;;;;14.52;7.20;;;18.40;89.00;;;;;;5055354;28;20168;-92
2021/07/17 02:13:15;;;;;;;21.48;7.88;;;18.40;88.90;;;;;;5071981;28;20179;-91
2021/07/17 02:15:51;;;;;;;19.83;7.38;;;18.40;88.70;;;;;;5019823;28;20643;-91
2021/07/17 02:18:23;;;;;;;21.33;6.50;;;18.40;88.60;;;;;;5075436;28;20215;-91
2021/07/17 02:20:50;;;;;;;13.45;7.53;;;18.30;88.60;;;;;;5075625;28;20228;-91
2021/07/17 02:23:16;;;;;;;20.15;6.95;;;18.30;88.70;;;;;;5075454;28;20176;-91
2021/07/17 02:25:41;;;;;;;15.35;7.90;;;18.20;88.50;;;;;;5059244;28;20178;-92
2021/07/17 02:28:07;;;;;;;26.15;7.70;;;18.20;88.50;;;;;;5058796;28;20659;-91
2021/07/17 02:30:33;;;;;;;21.90;7.53;;;18.20;88.40;;;;;;5058865;28;20628;-91
2021/07/17 02:32:59;;;;;;;24.58;7.13;;;18.20;88.40;;;;;;5059112;28;20179;-92
2021/07/17 02:35:25;;;;;;;13.18;6.85;;;18.20;88.40;;;;;;5058744;28;20175;-91
2021/07/17 02:37:51;;;;;;;18.17;7.18;;;18.20;88.10;;;;;;5058558;28;20705;-92
2021/07/17 02:40:17;;;;;;;17.48;6.35;;;18.20;88.00;;;;;;5075192;28;20171;-92
2021/07/17 02:42:43;;;;;;;23.48;6.38;;;18.20;88.00;;;;;;5059003;28;20272;-92
2021/07/17 02:45:11;;;;;;;14.80;6.40;;;18.20;88.00;;;;;;5075222;28;20199;-91
2021/07/17 02:47:37;;;;;;;14.20;5.90;;;18.10;87.90;;;;;;5075130;28;20542;-91
2021/07/17 02:50:04;;;;;;;27.52;6.65;;;18.10;87.90;;;;;;5058839;28;20221;-91
2021/07/17 02:52:30;;;;;;;23.25;6.45;;;18.10;87.60;;;;;;5075236;28;20203;-91
2021/07/17 02:54:56;;;;;;;16.38;7.43;;;18.10;87.50;;;;;;5058625;28;20178;-91
2021/07/17 02:57:21;;;;;;;12.45;6.13;;;18.00;87.50;;;;;;5058384;28;20199;-91
2021/07/17 02:59:47;;;;;;;23.77;6.18;;;18.00;87.50;;;;;;5058544;28;20186;-91
2021/07/17 03:02:13;;;;;;;15.73;5.63;;;17.90;87.20;;;;;;5058637;28;20266;-91
2021/07/17 03:04:38;;;;;;;14.55;6.20;;;17.90;87.00;;;;;;5058241;28;20203;-91
2021/07/17 03:07:04;;;;;;;17.55;5.40;;;17.70;86.80;;;;;;5058109;28;20181;-91
2021/07/17 03:09:29;;;;;;;17.45;6.05;;;17.80;86.80;;;;;;5058335;28;20164;-92
2021/07/17 03:11:55;;;;;;;15.27;5.90;;;17.80;86.50;;;;;;5058320;28;20174;-91
2021/07/17 03:14:21;;;;;;;16.52;5.10;;;17.80;86.30;;;;;;5058237;28;20172;-91
2021/07/17 03:16:46;;;;;;;15.10;5.57;;;17.80;86.00;;;;;;5058473;28;20286;-92
2021/07/17 03:21:39;;;;;;;9.32;4.45;;;17.70;85.50;;;;;;5083451;22;20287;-88
2021/07/17 03:24:04;;;;;;;12.55;4.85;;;17.70;85.30;;;;;;4992946;28;20284;-88
2021/07/17 03:26:30;;;;;;;16.85;4.32;;;17.60;84.80;;;;;;4992881;28;20252;-88
2021/07/17 03:28:56;;;;;;;9.93;4.00;;;17.70;84.60;;;;;;5008116;28;20224;-87
2021/07/17 03:31:29;;;;;;;16.17;4.38;;;17.70;84.20;;;;;;4992916;28;20273;-86
2021/07/17 03:33:55;;;;;;;10.52;3.45;;;17.70;84.00;;;;;;4991760;28;20182;-87
2021/07/17 03:36:21;;;;;;;9.45;3.78;;;17.80;83.50;;;;;;4991729;28;20182;-87
2021/07/17 03:38:47;;;;;;;9.48;3.92;;;17.70;82.70;;;;;;4991658;28;20247;-87
2021/07/17 03:41:12;;;;;;;8.32;3.47;;;17.70;82.60;;;;;;5007927;28;20665;-87
2021/07/17 03:43:38;;;;;;;4.07;2.67;;;17.80;82.20;;;;;;5007740;28;20243;-87
2021/07/17 03:46:04;;;;;;;8.10;2.83;;;17.70;81.70;;;;;;5007867;28;20178;-86
2021/07/17 03:48:29;;;;;;;12.13;2.95;;;17.80;81.10;;;;;;5007717;28;20664;-87
2021/07/17 03:50:55;;;;;;;7.13;2.90;;;17.80;80.60;;;;;;4992775;28;20194;-87
2021/07/17 03:53:21;;;;;;;13.02;2.85;;;17.80;80.30;;;;;;5007693;28;20257;-87
2021/07/17 03:55:46;;;;;;;4.30;2.60;;;17.90;79.70;;;;;;5007652;28;20175;-86
2021/07/17 03:58:12;;;;;;;9.90;2.60;;;17.90;79.70;;;;;;4992578;28;20653;-87
2021/07/17 04:00:37;;;;;;;7.55;2.78;;;17.90;79.90;;;;;;5007520;28;20293;-87
2021/07/17 04:03:04;;;;;;;3.53;2.22;;;17.90;79.70;;;;;;5007490;28;20174;-87
2021/07/17 04:05:30;;;;;;;7.80;3.00;;;17.80;79.10;;;;;;5007545;28;20194;-87
2021/07/17 04:07:56;;;;;;;9.90;2.60;;;17.80;78.60;;;;;;4992311;28;20170;-87
2021/07/17 04:10:22;;;;;;;17.42;3.55;;;17.70;78.70;;;;;;4992219;28;20200;-86
2021/07/17 04:12:48;;;;;;;6.18;2.60;;;17.70;78.80;;;;;;4991128;28;20209;-87
2021/07/17 04:15:14;;;;;;;6.18;2.53;;;17.70;78.90;;;;;;5007417;28;20566;-87
2021/07/17 04:17:40;;;;;;;7.18;2.28;;;17.70;79.20;;;;;;4991056;28;20205;-87
2021/07/17 04:20:07;;;;;;;6.38;2.40;;;17.60;79.10;;;;;;4992060;28;20209;-86
2021/07/17 04:22:34;;;;;;;8.10;2.58;;;17.50;78.70;;;;;;4991015;28;20174;-87
2021/07/17 04:24:59;;;;;;;3.75;2.10;;;17.40;79.30;;;;;;4990861;28;20224;-86
2021/07/17 04:27:25;;;;;;;6.72;3.08;;;17.50;79.60;;;;;;4992367;28;20637;-87
2021/07/17 04:29:51;;;;;;;9.23;2.60;;;17.50;79.10;;;;;;4992025;28;20196;-87
2021/07/17 04:32:16;;;;;;;6.65;2.35;;;17.40;79.90;;;;;;4991977;28;20166;-87
2021/07/17 04:34:42;;;;;;;5.30;2.60;;;17.30;80.60;;;;;;5007098;28;20213;-87
2021/07/17 04:37:08;;;;;;;12.43;3.35;;;17.20;80.80;;;;;;4992165;28;20179;-87
2021/07/17 04:39:33;;;;;;;10.90;2.88;;;17.30;80.60;;;;;;5006325;28;20205;-87
2021/07/17 04:41:59;;;;;;;9.48;2.88;;;17.20;80.90;;;;;;5006933;28;20190;-86
2021/07/17 04:44:25;;;;;;;8.35;2.42;;;17.20;80.90;;;;;;5006816;28;20270;-87
2021/07/17 04:46:51;;;;;;;10.35;2.50;;;17.30;81.00;;;;;;5006903;28;20171;-87
2021/07/17 04:49:16;;;;;;;10.50;2.92;;;17.20;81.40;;;;;;4991689;28;20170;-86
2021/07/17 04:51:42;;;;;;;8.60;2.78;;;17.20;80.90;;;;;;5006827;28;20212;-87
2021/07/17 04:54:08;;;;;;;7.63;2.20;;;17.20;81.40;;;;;;5006812;28;20211;-87
2021/07/17 04:56:33;;;;;;;8.32;2.78;;;17.20;81.70;;;;;;5006824;28;20337;-87
2021/07/17 04:58:59;;;;;;;8.02;2.65;;;17.20;81.70;;;;;;5006684;28;20189;-87
2021/07/17 05:01:24;;;;;;;9.63;2.60;;;17.20;81.60;;;;;;5006590;28;20198;-86
2021/07/17 05:03:50;;;;;;;9.32;2.65;;;17.30;81.60;;;;;;5006512;28;20225;-87
2021/07/17 05:06:15;;;;;;;13.63;3.45;;;17.30;81.50;;;;;;5006598;28;20178;-87
2021/07/17 05:08:41;;;;;;;7.68;2.85;;;17.30;81.40;;;;;;5006589;28;20188;-86
2021/07/17 05:11:07;;;;;;;11.15;3.67;;;17.30;81.60;;;;;;5006481;28;20278;-87
2021/07/17 05:13:34;;;;;;;8.93;3.05;;;17.20;82.00;;;;;;5006522;28;20516;-87
2021/07/17 05:15:59;;;;;;;11.70;3.70;;;17.20;82.10;;;;;;5006556;28;20177;-87
2021/07/17 05:18:25;;;;;;;11.25;3.53;;;17.30;82.20;;;;;;5006473;28;20185;-87
2021/07/17 05:20:51;;;;;;;12.63;3.33;;;17.30;82.10;;;;;;5006274;28;20213;-87
2021/07/17 05:23:16;;;;;;;10.25;2.92;;;17.40;81.90;;;;;;5006381;28;20178;-86
2021/07/17 05:25:44;;;;;;;9.07;3.13;;;17.50;82.00;;;;;;4991276;28;20175;-86
2021/07/17 05:28:09;;;;;;;15.07;3.20;;;17.50;82.50;;;;;;4990097;28;20600;-87
2021/07/17 05:30:35;;;;;;;16.85;4.28;;;17.50;82.70;;;;;;4991310;28;20194;-87
2021/07/17 05:33:01;;;;;;;17.48;3.60;;;17.60;82.50;;;;;;4989951;28;20661;-86
2021/07/17 05:35:30;;;;;;;9.32;2.85;;;17.70;82.40;;;;;;4991160;28;20177;-87
2021/07/17 05:37:56;;;;;;;12.40;3.35;;;17.70;82.30;;;;;;5006249;28;20207;-87
2021/07/17 05:40:22;;;;;;;13.70;3.20;;;17.70;82.60;;;;;;4989820;28;20282;-87
2021/07/17 05:42:48;;;;;;;16.33;3.35;;;17.80;81.80;;;;;;4991303;28;20162;-86
2021/07/17 05:45:14;;;;;;;13.60;5.05;;;17.90;82.00;;;;;;5006126;28;20202;-87
2021/07/17 05:47:39;;;;;;;14.43;3.53;;;18.00;82.00;;;;;;5006049;28;20174;-87
2021/07/17 05:50:06;;;;;;;15.98;3.80;;;18.00;82.00;;;;;;4991510;28;20280;-87
2021/07/17 05:52:32;;;;;;;11.65;3.35;;;18.10;81.60;;;;;;4994463;28;20277;-87
2021/07/17 05:54:59;;;;;;;12.82;3.20;;;18.20;82.10;;;;;;4993619;28;20210;-87
2021/07/17 05:57:24;;;;;;;11.38;3.40;;;18.30;81.40;;;;;;4994647;28;20587;-86
2021/07/17 05:59:50;;;;;;;12.63;3.55;;;18.20;81.30;;;;;;4994578;28;20196;-87
2021/07/17 06:02:17;;;;;;;14.55;3.72;;;18.20;81.40;;;;;;5009566;28;20273;-87
2021/07/17 06:04:43;;;;;;;13.30;3.15;;;18.20;82.30;;;;;;5009199;28;20251;-87
2021/07/17 06:07:09;;;;;;;12.07;3.92;;;18.40;81.60;;;;;;4993069;28;20223;-87
2021/07/17 06:09:35;;;;;;;13.68;3.60;;;18.60;81.50;;;;;;4994420;28;20596;-87
2021/07/17 06:12:01;;;;;;;13.65;3.30;;;18.60;80.90;;;;;;4994208;28;20219;-87
2021/07/17 06:14:27;;;;;;;15.48;3.35;;;18.70;80.80;;;;;;4992871;28;20178;-87
2021/07/17 06:16:52;;;;;;;10.52;3.22;;;18.70;80.50;;;;;;4994078;28;20182;-87
2021/07/17 06:19:18;;;;;;;10.65;3.17;;;18.80;80.80;;;;;;5009074;28;20182;-87
2021/07/17 06:21:44;;;;;;;10.93;3.25;;;18.80;80.30;;;;;;4994062;28;20198;-87
2021/07/17 06:24:10;;;;;;;8.27;2.97;;;18.90;79.70;;;;;;4993904;28;20304;-87
2021/07/17 06:26:35;;;;;;;12.00;3.17;;;19.00;79.70;;;;;;5009119;28;20179;-87
2021/07/17 06:29:01;;;;;;;12.73;3.10;;;19.20;79.10;;;;;;5008995;28;20555;-87
2021/07/17 06:31:27;;;;;;;13.32;3.25;;;19.20;77.80;;;;;;5009184;28;20194;-87
2021/07/17 06:33:52;;;;;;;12.98;2.95;;;19.10;79.40;;;;;;5008921;28;20733;-87
2021/07/17 06:36:18;;;;;;;15.65;3.33;;;19.30;79.00;;;;;;5008936;28;20264;-87
2021/07/17 06:38:45;;;;;;;13.07;3.53;;;19.50;78.60;;;;;;5008912;28;20246;-87
2021/07/17 06:41:11;;;;;;;12.43;2.97;;;19.50;77.40;;;;;;4992381;28;20198;-87
2021/07/17 06:43:37;;;;;;;16.45;3.45;;;19.60;77.80;;;;;;5008781;28;20233;-87
2021/07/17 06:46:03;;;;;;;10.35;3.05;;;19.60;77.70;;;;;;4993618;28;20202;-87
2021/07/17 06:48:30;;;;;;;9.75;3.05;;;19.80;76.90;;;;;;4992434;28;20634;-87
2021/07/17 06:50:55;;;;;;;12.00;2.92;;;20.00;76.50;;;;;;4993570;28;20578;-87
2021/07/17 06:53:21;;;;;;;7.65;2.45;;;20.00;76.10;;;;;;4993575;28;20173;-87
2021/07/17 06:55:47;;;;;;;11.77;2.95;;;19.90;76.30;;;;;;4993472;28;20653;-87
2021/07/17 06:58:13;;;;;;;10.15;2.47;;;20.00;76.30;;;;;;4993530;28;20178;-87
2021/07/17 07:00:39;;;;;;;11.07;3.03;;;19.90;77.50;;;;;;4992856;28;20540;-87
2021/07/17 07:03:05;;;;;;;12.07;2.50;;;19.90;76.90;;;;;;4993290;28;20182;-87
2021/07/17 07:05:30;;;;;;;15.15;3.40;;;19.90;76.40;;;;;;4992113;28;20293;-87
2021/07/17 07:07:56;;;;;;;15.90;3.05;;;19.90;76.20;;;;;;4993339;28;20170;-87
2021/07/17 07:10:23;;;;;;;8.80;3.13;;;20.10;75.70;;;;;;4993235;28;20205;-87
2021/07/17 07:12:49;;;;;;;14.05;2.88;;;20.10;75.80;;;;;;4992109;28;20185;-87
2021/07/17 07:15:16;;;;;;;9.00;2.60;;;20.20;75.20;;;;;;4993355;28;20178;-86
2021/07/17 07:17:42;;;;;;;8.68;2.60;;;20.20;75.40;;;;;;4993450;28;20546;-86
2021/07/17 07:20:09;;;;;;;6.78;2.83;;;20.20;75.50;;;;;;4992997;28;20213;-87
2021/07/17 07:22:35;;;;;;;11.85;2.88;;;20.30;75.20;;;;;;4991900;28;20186;-86
2021/07/17 07:25:00;;;;;;;11.40;2.90;;;20.20;75.60;;;;;;4993078;28;20225;-88
2021/07/17 07:27:26;;;;;;;11.27;2.95;;;20.40;76.10;;;;;;5008176;28;20185;-86
2021/07/17 07:29:51;;;;;;;10.70;2.42;;;20.30;76.30;;;;;;4992925;28;20343;-86
2021/07/17 07:32:17;;;;;;;14.13;4.22;;;20.40;75.40;;;;;;5008042;28;20189;-87
2021/07/17 07:34:43;;;;;;;9.55;3.17;;;20.50;75.00;;;;;;4993201;28;20174;-87
2021/07/17 07:37:08;;;;;;;9.93;2.38;;;20.70;75.00;;;;;;4992928;28;20255;-87
2021/07/17 07:39:35;;;;;;;13.48;2.88;;;20.70;74.00;;;;;;4992985;28;20194;-86
2021/07/17 07:42:01;;;;;;;7.03;2.38;;;20.70;74.30;;;;;;5007970;28;20231;-87
2021/07/17 07:44:27;;;;;;;7.55;2.00;;;20.70;73.90;;;;;;4993004;28;20596;-86
2021/07/17 07:46:53;;;;;;;6.40;2.00;;;20.80;72.30;;;;;;4992983;28;20224;-86
2021/07/17 07:49:19;;;;;;;8.38;2.13;;;20.80;72.20;;;;;;4992692;28;20169;-86
2021/07/17 07:51:45;;;;;;;8.93;2.65;;;20.80;72.60;;;;;;4992658;28;20548;-86
2021/07/17 07:54:10;;;;;;;8.05;2.53;;;20.90;72.10;;;;;;4992581;28;20206;-87
2021/07/17 07:56:36;;;;;;;8.77;2.30;;;20.90;73.10;;;;;;5007738;28;20178;-87
2021/07/17 07:59:02;;;;;;;11.95;2.65;;;21.10;73.70;;;;;;4992987;28;20178;-87
2021/07/17 08:01:27;;;;;;;10.15;2.13;;;21.30;72.90;;;;;;4992555;28;20220;-87
2021/07/17 08:03:53;;;;;;;7.32;2.17;;;21.50;72.40;;;;;;5007523;28;20203;-87
2021/07/17 08:06:18;;;;;;;7.90;2.63;;;21.50;71.50;;;;;;4992402;28;20215;-87
2021/07/17 08:08:44;;;;;;;10.50;2.58;;;21.50;71.30;;;;;;5007526;28;20269;-87
2021/07/17 08:11:10;;;;;;;6.80;2.28;;;21.60;71.30;;;;;;5007430;28;20194;-85
2021/07/17 08:13:35;;;;;;;9.18;2.35;;;21.70;70.50;;;;;;4991370;28;20170;-87
2021/07/17 08:16:02;;;;;;;8.95;2.22;;;21.70;71.30;;;;;;4992324;28;20174;-87
2021/07/17 08:18:29;;;;;;;7.03;2.22;;;21.90;73.00;;;;;;4992636;28;20170;-87
2021/07/17 08:20:55;;;;;;;7.57;2.13;;;22.00;70.00;;;;;;4992055;28;20218;-86
2021/07/17 08:23:21;;;;;;;11.87;2.13;;;21.90;70.10;;;;;;4992127;28;20174;-87
2021/07/17 08:25:46;;;;;;;9.50;2.38;;;22.00;71.30;;;;;;5007267;28;20257;-86
2021/07/17 08:28:12;;;;;;;6.80;2.22;;;22.20;69.40;;;;;;4992389;28;20174;-87
2021/07/17 08:30:37;;;;;;;8.50;2.13;;;22.40;67.60;;;;;;4992092;28;20634;-87
2021/07/17 08:33:03;;;;;;;9.75;2.25;;;22.40;67.80;;;;;;4992073;28;20174;-87
2021/07/17 08:35:29;;;;;;;6.20;2.28;;;22.60;68.20;;;;;;4991972;28;20174;-87
2021/07/17 08:37:55;;;;;;;7.55;1.73;;;22.60;68.10;;;;;;5007294;28;20184;-87
2021/07/17 08:40:21;;;;;;;8.45;1.67;;;22.70;67.00;;;;;;5006935;28;20194;-87
2021/07/17 08:42:50;;;;;;;9.40;2.00;;;22.80;66.70;;;;;;4991881;28;20201;-87
2021/07/17 08:45:16;;;;;;;7.15;1.90;;;23.00;65.50;;;;;;4990608;28;20293;-87
2021/07/17 08:47:44;;;;;;;9.48;2.30;;;23.10;66.20;;;;;;4990666;28;20265;-87
2021/07/17 08:50:13;;;;;;;8.75;1.77;;;23.20;67.70;;;;;;4990565;28;20209;-87
2021/07/17 08:52:39;;;;;;;12.82;2.88;;;23.30;67.40;;;;;;4991826;28;20166;-87
2021/07/17 08:55:07;;;;;;;11.52;1.80;;;23.50;65.60;;;;;;5006713;28;20189;-87
2021/07/17 08:57:43;;;;;;;10.13;2.45;;;23.50;64.40;;;;;;4990573;28;20178;-87
2021/07/17 09:00:18;;;;;;;7.28;2.10;;;23.50;64.30;;;;;;4991813;28;20250;-88
2021/07/17 09:02:48;;;;;;;6.22;2.03;;;23.70;65.60;;;;;;4990507;28;20178;-87
2021/07/17 09:05:17;;;;;;;11.77;2.38;;;23.80;64.90;;;;;;4991717;28;20193;-87
2021/07/17 09:07:42;;;;;;;8.90;2.30;;;23.90;63.80;;;;;;4991581;28;20167;-87
2021/07/17 09:10:33;;;;;;;11.95;2.15;;;23.90;66.70;;;;;;4991491;28;20205;-87
2021/07/17 09:13:13;;;;;;;9.93;2.08;;;23.90;66.30;;;;;;4990525;28;20178;-87
2021/07/17 09:15:49;;;;;;;14.25;2.72;;;24.00;66.10;;;;;;4991907;28;20174;-87
2021/07/17 09:18:30;;;;;;;6.65;2.50;;;24.00;67.10;;;;;;4991441;28;20190;-87
2021/07/17 09:21:17;;;;;;;7.47;2.05;;;24.00;65.40;;;;;;5057910;22;20219;-89
2021/07/17 09:23:52;;;;;;;14.93;2.95;;;24.00;65.70;;;;;;5072253;28;20207;-89
2021/07/17 09:26:29;;;;;;;10.70;2.47;;;24.10;65.10;;;;;;5072612;28;20159;-89
2021/07/17 09:29:07;;;;;;;9.18;2.75;;;23.60;67.30;;;;;;5073393;28;20167;-89
2021/07/17 09:31:50;;;;;;;17.83;2.42;;;23.70;68.70;;;;;;5073362;28;20195;-89
2021/07/17 09:34:18;;;;;;;10.13;2.35;;;23.60;66.70;;;;;;5055507;28;20174;-89
2021/07/17 09:37:07;;;;;;;12.27;2.78;;;24.10;65.60;;;;;;5055347;28;20213;-89
2021/07/17 09:39:37;;;;;;;17.25;2.63;;;23.90;65.50;;;;;;5073571;28;20632;-89
2021/07/17 09:42:06;;;;;;;8.02;2.17;;;24.00;67.90;;;;;;5072087;28;20167;-89
2021/07/17 09:44:33;;;;;;;7.00;2.05;;;24.10;67.30;;;;;;5072015;28;20617;-89
2021/07/17 09:46:59;;;;;;;7.65;2.30;;;24.20;64.50;;;;;;5071971;28;20176;-89
2021/07/17 09:49:26;;;;;;;9.68;2.40;;;24.30;65.50;;;;;;5072014;28;20182;-90
2021/07/17 09:52:13;;;;;;;5.82;1.80;;;24.40;64.70;;;;;;5071965;28;20202;-89
2021/07/17 09:54:39;;;;;;;8.30;2.47;;;24.70;62.90;;;;;;5072159;28;20171;-89
2021/07/17 09:57:06;;;;;;;14.68;2.20;;;24.70;62.90;;;;;;5073416;28;20167;-89
2021/07/17 09:59:31;;;;;;;10.25;2.35;;;24.90;62.20;;;;;;5055101;28;20277;-89
2021/07/17 10:01:57;;;;;;;9.65;3.17;;;24.60;65.10;;;;;;5073024;28;20167;-89
2021/07/17 10:04:23;;;;;;;7.43;2.40;;;24.50;64.50;;;;;;5055166;28;20198;-89
2021/07/17 10:06:58;;;;;;;12.05;2.10;;;24.80;64.20;;;;;;5071814;28;20178;-89
2021/07/17 10:09:28;;;;;;;7.95;2.33;;;24.70;63.80;;;;;;5055091;28;20159;-89
2021/07/17 10:11:56;;;;;;;9.20;2.00;;;24.70;62.80;;;;;;5055357;28;20564;-89
2021/07/17 10:14:23;;;;;;;11.07;2.20;;;25.00;62.60;;;;;;5055094;28;20175;-88
2021/07/17 10:16:54;;;;;;;7.43;1.77;;;24.90;62.10;;;;;;5071700;28;20266;-89
2021/07/17 10:19:25;;;;;;;10.32;2.42;;;25.00;62.30;;;;;;5071696;28;20178;-89
2021/07/17 10:21:51;;;;;;;8.40;1.80;;;25.60;59.70;;;;;;5071554;28;20207;-89
2021/07/17 10:24:17;;;;;;;6.70;2.25;;;25.60;57.20;;;;;;5071549;28;20261;-89
2021/07/17 10:26:44;;;;;;;6.70;2.10;;;25.60;59.10;;;;;;5054967;28;20558;-89
2021/07/17 10:29:12;;;;;;;8.40;2.45;;;25.40;58.60;;;;;;5054947;28;20175;-89
2021/07/17 10:31:39;;;;;;;8.18;2.22;;;25.70;57.80;;;;;;5055065;28;20222;-89
2021/07/17 10:34:06;;;;;;;9.63;2.28;;;25.90;58.00;;;;;;5071587;28;20172;-89
2021/07/17 10:36:35;;;;;;;10.13;2.40;;;25.40;59.80;;;;;;5072842;28;20174;-89
2021/07/17 10:39:06;;;;;;;4.40;1.88;;;25.70;56.60;;;;;;5075303;28;20682;-89
2021/07/17 10:41:35;;;;;;;6.82;1.63;;;25.50;57.20;;;;;;5058846;28;20249;-89
2021/07/17 10:44:01;;;;;;;6.53;1.90;;;25.70;57.90;;;;;;5076025;28;20592;-89
2021/07/17 10:46:39;;;;;;;4.65;1.83;;;25.70;57.30;;;;;;5059270;28;20203;-88
2021/07/17 10:49:08;;;;;;;6.55;1.58;;;25.40;58.30;;;;;;5075052;28;20254;-89
2021/07/17 10:51:38;;;;;;;5.07;1.70;;;25.70;59.70;;;;;;5074745;28;20738;-89
2021/07/17 10:54:10;;;;;;;6.93;2.17;;;25.60;58.20;;;;;;5075255;28;20175;-89
2021/07/17 10:56:39;;;;;;;12.18;2.00;;;25.50;58.70;;;;;;5076131;28;20159;-89
2021/07/17 10:59:28;;;;;;;4.28;1.77;;;25.60;56.60;;;;;;5074841;28;20650;-89
2021/07/17 11:01:57;;;;;;;11.80;1.95;;;25.80;54.60;;;;;;5047938;28;20207;-89
2021/07/17 11:04:45;;;;;;;7.35;2.05;;;25.50;57.60;;;;;;5058210;28;20302;-88
2021/07/17 11:07:16;;;;;;;7.82;2.10;;;25.80;56.20;;;;;;5076267;28;20241;-88
2021/07/17 11:10:04;;;;;;;12.20;2.03;;;25.90;56.50;;;;;;5057810;28;20182;-88
2021/07/17 11:12:43;;;;;;;7.05;1.85;;;25.70;56.40;;;;;;5075747;28;20210;-88
2021/07/17 11:15:09;;;;;;;3.78;1.70;;;25.60;55.60;;;;;;5057880;28;20171;-88
2021/07/17 11:17:54;;;;;;;5.85;2.00;;;25.90;54.20;;;;;;5058030;28;20233;-88
2021/07/17 11:20:31;;;;;;;5.43;1.85;;;26.10;55.30;;;;;;5057716;28;20217;-88
2021/07/17 11:23:14;;;;;;;4.10;1.50;;;25.80;58.30;;;;;;5074564;28;20170;-90
2021/07/17 11:25:59;;;;;;;5.65;1.42;;;26.30;56.50;;;;;;5075707;28;20274;-88
2021/07/17 11:29:04;;;;;;;6.65;1.95;;;26.10;57.60;;;;;;5075551;28;20542;-88
2021/07/17 11:31:31;;;;;;;7.28;2.00;;;26.20;57.90;;;;;;5057446;28;20613;-88
2021/07/17 11:34:13;;;;;;;8.18;2.10;;;26.20;56.00;;;;;;5057425;28;20179;-89
2021/07/17 11:36:44;;;;;;;8.77;2.08;;;26.20;58.30;;;;;;5057732;28;20198;-88
2021/07/17 11:39:12;;;;;;;6.22;1.83;;;26.20;55.50;;;;;;5075043;28;20163;-89
2021/07/17 11:41:38;;;;;;;5.07;1.65;;;25.60;57.20;;;;;;5074027;28;20196;-88
2021/07/17 11:44:05;;;;;;;6.43;1.67;;;25.80;56.10;;;;;;5075149;28;20543;-88
2021/07/17 11:46:32;;;;;;;8.73;2.22;;;25.90;55.50;;;;;;5074790;28;20176;-88
2021/07/17 11:49:00;;;;;;;7.20;1.50;;;26.20;55.50;;;;;;5075346;28;20221;-88
2021/07/17 11:51:26;;;;;;;8.57;2.35;;;25.90;55.50;;;;;;5057064;28;20200;-88
2021/07/17 11:53:59;;;;;;;5.20;1.40;;;26.20;55.10;;;;;;5058084;28;20620;-88
2021/07/17 11:56:25;;;;;;;4.43;1.60;;;26.10;54.70;;;;;;5075278;28;20156;-89
2021/07/17 11:59:07;;;;;;;5.40;1.50;;;26.30;55.40;;;;;;5056977;28;20206;-89
2021/07/17 12:01:33;;;;;;;8.68;1.50;;;26.60;54.40;;;;;;5074672;28;20571;-88
2021/07/17 12:03:58;;;;;;;6.75;1.67;;;26.70;54.20;;;;;;5057271;28;20309;-88
2021/07/17 12:06:27;;;;;;;5.90;1.52;;;26.70;54.00;;;;;;5057456;28;20199;-88
2021/07/17 12:08:53;;;;;;;7.68;1.63;;;26.60;50.30;;;;;;5056896;28;20565;-88
2021/07/17 12:11:19;;;;;;;9.00;1.55;;;26.50;52.80;;;;;;5073405;28;20191;-88
2021/07/17 12:13:46;;;;;;;10.57;1.63;;;26.30;52.30;;;;;;5057858;28;20698;-88
2021/07/17 12:16:22;;;;;;;5.28;1.40;;;26.50;53.50;;;;;;5073312;28;20172;-88
2021/07/17 12:18:56;;;;;;;4.75;1.35;;;26.70;52.00;;;;;;5073289;28;20174;-89
2021/07/17 12:21:23;;;;;;;7.00;1.40;;;26.90;52.90;;;;;;5056547;28;20207;-89
2021/07/17 12:23:57;;;;;;;4.05;1.60;;;26.70;53.20;;;;;;5074605;28;20163;-88
2021/07/17 12:26:23;;;;;;;9.25;1.75;;;26.70;48.90;;;;;;5056412;28;20209;-88
2021/07/17 12:28:53;;;;;;;4.57;1.38;;;26.70;52.00;;;;;;5074470;28;20218;-90
2021/07/17 12:31:20;;;;;;;11.10;2.15;;;26.80;50.50;;;;;;5074696;28;20238;-90
2021/07/17 12:33:47;;;;;;;5.10;1.45;;;26.70;51.20;;;;;;5074566;28;20168;-90
2021/07/17 12:36:27;;;;;;;15.07;1.42;;;26.90;50.30;;;;;;5073057;28;20352;-90
2021/07/17 12:38:56;;;;;;;8.48;1.95;;;27.00;49.50;;;;;;5074366;28;20527;-90
2021/07/17 12:41:26;;;;;;;2.30;1.23;;;26.80;49.40;;;;;;5073115;28;20278;-89
2021/07/17 12:43:54;;;;;;;4.18;1.40;;;26.70;49.60;;;;;;5073139;28;20554;-89
2021/07/17 12:46:26;;;;;;;2.45;1.30;;;26.90;48.80;;;;;;5073404;28;20541;-89